Time;durP1;ratioP1;P1;durP2;ratioP2;P2;SDS_P1;SDS_P2;PMS_P1;PMS_P2;Temp;Humidity;BMP_temperature;BMP_pressure;BME280_temperature;BME280_humidity;BME280_pressure;Samples;Min_cycle;Max_cycle;Signal;HPM_P1;HPM_P2
2023/04/25 00:01:38;;;;;;;2.67;2.17;;;;;;;16.54;61.11;93876.09;5127694;28;20195;-48
2023/04/25 00:04:05;;;;;;;2.27;2.17;;;;;;;16.53;60.94;93866.75;5109645;28;20197;-48
2023/04/25 00:06:32;;;;;;;2.27;2.07;;;;;;;16.54;60.90;93858.03;5109692;28;20674;-47
2023/04/25 00:09:01;;;;;;;2.43;1.90;;;;;;;16.53;61.04;93853.84;5109874;28;20185;-48
2023/04/25 00:11:30;;;;;;;2.60;2.40;;;;;;;16.39;61.21;93816.88;5127014;28;20224;-47
2023/04/25 00:13:59;;;;;;;2.23;2.10;;;;;;;16.42;60.98;93810.56;5129950;28;20188;-47
2023/04/25 00:16:26;;;;;;;1.90;1.80;;;;;;;16.48;61.01;93820.88;5129768;28;20296;-48
2023/04/25 00:18:56;;;;;;;4.67;2.47;;;;;;;16.47;61.02;93826.25;5129794;27;20185;-47
2023/04/25 00:21:24;;;;;;;2.23;1.90;;;;;;;16.27;61.27;93796.00;5129418;27;20220;-48
2023/04/25 00:23:51;;;;;;;2.90;2.10;;;;;;;16.44;61.07;93816.31;5130015;27;20192;-48
2023/04/25 00:26:20;;;;;;;3.03;2.23;;;;;;;16.23;60.99;93794.81;5129260;27;20188;-48
2023/04/25 00:28:49;;;;;;;3.60;2.03;;;;;;;16.43;60.95;93818.09;5129721;27;20196;-47
2023/04/25 00:31:16;;;;;;;1.93;1.80;;;;;;;16.42;61.22;93823.47;5129936;27;20587;-47
2023/04/25 00:33:42;;;;;;;2.90;2.13;;;;;;;16.41;61.31;93833.00;5129928;27;20191;-47
2023/04/25 00:36:09;;;;;;;3.73;2.07;;;;;;;16.41;61.12;93824.47;5129422;27;20195;-47
2023/04/25 00:38:38;;;;;;;2.93;2.10;;;;;;;16.40;61.34;93830.59;5130250;27;20191;-48
2023/04/25 00:41:08;;;;;;;2.33;1.90;;;;;;;16.28;61.35;93807.16;5129727;27;20220;-48
2023/04/25 00:43:38;;;;;;;2.63;2.43;;;;;;;16.38;61.25;93830.00;5129771;27;20184;-48
2023/04/25 00:46:06;;;;;;;2.20;2.00;;;;;;;16.17;61.44;93805.91;5129905;28;20177;-48
2023/04/25 00:48:33;;;;;;;2.60;2.10;;;;;;;16.21;61.66;93820.00;5129727;28;20599;-57
2023/04/25 00:51:00;;;;;;;2.13;2.03;;;;;;;16.29;61.33;93830.16;5129548;28;20188;-47
2023/04/25 00:53:29;;;;;;;2.00;1.90;;;;;;;16.26;61.41;93822.81;5129253;28;20199;-47
2023/04/25 00:55:58;;;;;;;2.43;2.20;;;;;;;16.30;61.45;93825.78;5129105;28;20199;-48
2023/04/25 00:58:25;;;;;;;2.27;2.07;;;;;;;16.25;61.59;93807.53;5129525;28;20197;-48
2023/04/25 01:00:53;;;;;;;2.37;1.93;;;;;;;16.27;61.89;93813.28;5129418;27;20185;-47
2023/04/25 01:03:21;;;;;;;3.07;2.00;;;;;;;16.25;61.87;93804.94;5132937;27;20181;-48
2023/04/25 01:05:48;;;;;;;3.70;2.10;;;;;;;16.21;62.16;93791.63;5133195;27;20199;-48
2023/04/25 01:08:16;;;;;;;2.83;2.00;;;;;;;16.19;62.15;93793.63;5132900;27;20191;-48
2023/04/25 01:10:43;;;;;;;3.47;2.10;;;;;;;16.17;62.14;93787.84;5132751;27;20208;-47
2023/04/25 01:13:10;;;;;;;2.33;2.10;;;;;;;16.16;62.27;93799.16;5132374;27;20212;-47
2023/04/25 01:15:37;;;;;;;3.60;2.70;;;;;;;16.16;62.15;93798.38;5133001;27;20655;-48
2023/04/25 01:18:04;;;;;;;2.50;2.30;;;;;;;16.09;62.30;93788.03;5132907;27;20565;-48
2023/04/25 01:20:34;;;;;;;2.30;2.10;;;;;;;16.14;62.24;93790.03;5132916;27;20196;-48
2023/04/25 01:23:03;;;;;;;2.87;2.57;;;;;;;16.12;62.55;93786.84;5132655;27;20236;-46
2023/04/25 01:25:30;;;;;;;2.40;2.20;;;;;;;16.02;62.17;93775.13;5132250;27;20184;-50
2023/04/25 01:28:00;;;;;;;2.27;2.07;;;;;;;16.09;62.57;93785.44;5132818;27;20241;-47
2023/04/25 01:30:28;;;;;;;3.67;2.33;;;;;;;16.07;62.45;93779.69;5132675;27;20234;-48
2023/04/25 01:32:56;;;;;;;4.13;2.40;;;;;;;16.04;62.56;93792.97;5132521;27;20200;-53
2023/04/25 01:35:24;;;;;;;2.77;2.57;;;;;;;16.03;62.60;93791.38;5132286;27;20210;-46
2023/04/25 01:37:52;;;;;;;2.70;2.50;;;;;;;15.99;62.83;93801.28;5132511;27;20184;-47
2023/04/25 01:40:22;;;;;;;2.80;2.60;;;;;;;15.98;62.68;93793.75;5132127;27;20188;-49
2023/04/25 01:42:49;;;;;;;2.47;2.27;;;;;;;15.83;62.82;93777.63;5132444;27;20644;-47
2023/04/25 01:45:15;;;;;;;2.63;2.33;;;;;;;15.91;62.98;93787.75;5132108;27;20184;-49
2023/04/25 01:47:43;;;;;;;2.50;2.30;;;;;;;15.88;62.84;93788.94;5132312;27;20579;-48
2023/04/25 01:50:12;;;;;;;4.27;2.83;;;;;;;15.86;63.26;93797.88;5131792;27;20283;-48
2023/04/25 01:52:38;;;;;;;2.87;2.57;;;;;;;15.83;63.20;93803.41;5132282;27;20247;-48
2023/04/25 01:55:06;;;;;;;2.63;2.43;;;;;;;15.80;63.27;93796.81;5131675;27;20192;-48
2023/04/25 01:57:35;;;;;;;5.13;2.60;;;;;;;15.79;63.28;93800.41;5132006;27;20199;-47
2023/04/25 02:00:05;;;;;;;4.60;2.90;;;;;;;15.77;63.31;93808.34;5131775;27;20176;-48
2023/04/25 02:02:32;;;;;;;3.67;3.00;;;;;;;15.78;63.37;93803.97;5132238;27;20253;-51
2023/04/25 02:04:59;;;;;;;3.23;2.80;;;;;;;15.78;63.19;93794.47;5132377;27;20184;-47
2023/04/25 02:07:27;;;;;;;2.80;2.50;;;;;;;15.80;63.50;93796.81;5131087;27;20203;-47
2023/04/25 02:09:54;;;;;;;3.27;2.97;;;;;;;15.81;63.52;93790.72;5131824;27;20181;-48
2023/04/25 02:12:21;;;;;;;4.60;2.87;;;;;;;15.75;63.42;93779.34;5130936;27;20224;-47
2023/04/25 02:14:49;;;;;;;3.10;2.87;;;;;;;15.81;63.23;93790.72;5131974;27;20184;-48
2023/04/25 02:17:17;;;;;;;2.73;2.53;;;;;;;15.83;63.46;93785.34;5131595;27;20196;-49
2023/04/25 02:19:44;;;;;;;3.43;3.03;;;;;;;15.83;63.49;93780.19;5131816;27;20775;-48
2023/04/25 02:22:11;;;;;;;2.80;2.60;;;;;;;15.81;63.61;93775.25;5131100;27;20232;-47
2023/04/25 02:24:38;;;;;;;2.73;2.53;;;;;;;15.74;63.60;93764.09;5131923;27;20188;-47
2023/04/25 02:27:05;;;;;;;4.10;2.73;;;;;;;15.78;63.38;93768.69;5131185;27;20192;-48
2023/04/25 02:29:32;;;;;;;2.70;2.50;;;;;;;15.71;63.67;93759.31;5131000;27;20284;-49
2023/04/25 02:32:00;;;;;;;2.70;2.50;;;;;;;15.73;63.54;93770.25;5130942;27;20730;-48
2023/04/25 02:34:28;;;;;;;2.80;2.60;;;;;;;15.70;63.61;93757.72;5130187;27;20280;-47
2023/04/25 02:36:55;;;;;;;2.93;2.60;;;;;;;15.64;63.65;93749.00;5130730;27;20189;-54
2023/04/25 02:39:22;;;;;;;2.90;2.70;;;;;;;15.45;63.78;93719.53;5130937;27;20188;-47
2023/04/25 02:41:49;;;;;;;2.40;2.30;;;;;;;15.61;64.07;93758.84;5131227;27;20184;-48
2023/04/25 02:44:16;;;;;;;2.67;2.47;;;;;;;15.57;63.90;93748.13;5130802;27;20193;-47
2023/04/25 02:46:43;;;;;;;2.70;2.50;;;;;;;15.53;64.04;93750.28;5129706;27;20741;-48
2023/04/25 02:49:11;;;;;;;3.30;2.43;;;;;;;15.49;64.05;93743.13;5130781;27;20622;-48
2023/04/25 02:51:40;;;;;;;3.27;2.97;;;;;;;15.46;63.98;93743.53;5130867;27;20574;-48
2023/04/25 02:54:07;;;;;;;3.87;2.53;;;;;;;15.45;64.07;93739.34;5131089;27;20196;-48
2023/04/25 02:56:34;;;;;;;2.77;2.57;;;;;;;15.42;64.13;93740.53;5130866;27;20185;-46
2023/04/25 02:59:02;;;;;;;2.57;2.40;;;;;;;15.39;64.30;93734.97;5129638;27;20203;-47
2023/04/25 03:01:28;;;;;;;3.07;2.80;;;;;;;15.37;64.50;93736.91;5129496;27;20185;-48
2023/04/25 03:03:55;;;;;;;2.70;2.50;;;;;;;15.34;64.61;93730.38;5130496;27;20200;-49
2023/04/25 03:06:23;;;;;;;2.70;2.50;;;;;;;15.30;64.44;93721.44;5130663;27;20625;-48
2023/04/25 03:08:53;;;;;;;2.50;2.30;;;;;;;15.30;64.69;93727.38;5130846;27;20199;-47
2023/04/25 03:11:20;;;;;;;2.80;2.60;;;;;;;15.29;64.79;93727.59;5130530;27;20192;-47
2023/04/25 03:13:47;;;;;;;2.97;2.77;;;;;;;15.09;64.73;93704.28;5130389;27;20216;-46
2023/04/25 03:16:14;;;;;;;3.60;2.50;;;;;;;15.26;64.89;93730.53;5130461;27;20237;-48
2023/04/25 03:18:41;;;;;;;2.70;2.50;;;;;;;15.11;64.83;93709.25;5130575;27;20192;-48
2023/04/25 03:21:08;;;;;;;3.17;2.87;;;;;;;15.25;64.74;93718.66;5130888;27;20215;-49
2023/04/25 03:23:36;;;;;;;2.80;2.60;;;;;;;14.77;64.68;93657.56;5130626;27;20690;-48
2023/04/25 03:26:04;;;;;;;2.60;2.40;;;;;;;15.19;64.35;93721.97;5130279;27;20227;-48
2023/04/25 03:28:31;;;;;;;2.50;2.30;;;;;;;15.24;64.97;93723.00;5130580;27;20200;-47
2023/04/25 03:30:57;;;;;;;2.70;2.47;;;;;;;15.25;64.94;93729.75;5129944;27;20195;-48
2023/04/25 03:33:24;;;;;;;4.07;3.10;;;;;;;15.25;64.75;93723.81;5129998;27;20735;-47
2023/04/25 03:35:52;;;;;;;5.13;2.70;;;;;;;15.26;65.03;93717.66;5129640;27;20188;-50
2023/04/25 03:38:19;;;;;;;2.70;2.50;;;;;;;15.20;65.15;93711.50;5130201;27;20204;-48
2023/04/25 03:40:47;;;;;;;2.90;2.57;;;;;;;15.23;64.78;93715.44;5130181;27;20193;-48
2023/04/25 03:43:14;;;;;;;2.90;2.70;;;;;;;15.31;64.96;93726.41;5130145;27;20192;-50
2023/04/25 03:45:41;;;;;;;4.13;2.77;;;;;;;15.33;64.86;93721.06;5130445;27;20181;-47
2023/04/25 03:48:08;;;;;;;3.00;2.70;;;;;;;15.35;64.80;93720.88;5130253;27;20656;-48
2023/04/25 03:50:35;;;;;;;2.90;2.70;;;;;;;15.38;65.00;93718.72;5129879;27;20184;-49
2023/04/25 03:53:01;;;;;;;2.83;2.63;;;;;;;15.43;64.92;93718.16;5130283;28;20687;-47
2023/04/25 03:55:28;;;;;;;2.67;2.47;;;;;;;15.43;64.81;93711.22;5129687;28;20268;-48
2023/04/25 03:57:57;;;;;;;3.10;2.90;;;;;;;15.56;64.66;93718.19;5130091;28;20199;-48
2023/04/25 04:00:26;;;;;;;2.90;2.70;;;;;;;15.66;64.41;93723.03;5129987;28;20220;-48
2023/04/25 04:02:53;;;;;;;2.70;2.50;;;;;;;15.73;64.21;93734.94;5129470;27;20199;-48
2023/04/25 04:05:20;;;;;;;3.37;2.90;;;;;;;15.80;64.14;93732.38;5129937;28;20187;-47
2023/04/25 04:07:47;;;;;;;3.67;2.50;;;;;;;15.88;63.98;93741.75;5129695;27;20279;-48
2023/04/25 04:10:13;;;;;;;3.10;2.90;;;;;;;15.71;63.88;93702.59;5129919;27;20192;-49
2023/04/25 04:12:40;;;;;;;3.60;2.40;;;;;;;15.99;63.74;93733.44;5129505;27;20619;-47
2023/04/25 04:15:10;;;;;;;3.20;2.90;;;;;;;16.06;63.64;93736.81;5130179;27;20177;-48
2023/04/25 04:17:37;;;;;;;2.57;2.40;;;;;;;16.12;63.92;93738.63;5129782;27;20328;-47
2023/04/25 04:20:05;;;;;;;2.53;2.33;;;;;;;16.21;63.51;93736.69;5129215;27;20195;-49
2023/04/25 04:22:32;;;;;;;2.53;2.43;;;;;;;16.27;63.54;93731.50;5108861;28;20263;-48
2023/04/25 04:24:59;;;;;;;2.73;2.50;;;;;;;16.34;63.37;93725.59;5109295;28;20897;-47
2023/04/25 04:27:26;;;;;;;2.97;2.57;;;;;;;16.34;63.32;93728.16;5126010;28;20196;-48
2023/04/25 04:29:53;;;;;;;2.60;2.43;;;;;;;16.43;63.15;93732.16;5129470;27;20822;-47
2023/04/25 04:32:23;;;;;;;9.67;2.30;;;;;;;16.70;79.02;93723.41;5128926;28;20185;-49
2023/04/25 04:34:49;;;;;;;4.57;2.23;;;;;;;17.25;82.37;93730.94;5129786;27;20286;-46
2023/04/25 04:37:17;;;;;;;4.10;2.33;;;;;;;17.74;80.25;93730.41;5133168;27;20184;-49
2023/04/25 04:39:45;;;;;;;5.00;2.40;;;;;;;18.14;78.48;93716.53;5132364;27;20212;-46
2023/04/25 04:42:12;;;;;;;10.43;2.77;;;;;;;18.28;76.77;93689.56;5133376;27;20694;-49
2023/04/25 04:44:39;;;;;;;4.43;2.80;;;;;;;18.80;75.16;93729.81;5133506;27;20196;-48
2023/04/25 04:47:06;;;;;;;5.50;2.50;;;;;;;19.03;73.66;93724.03;5133344;27;20645;-48
2023/04/25 04:49:34;;;;;;;5.20;2.57;;;;;;;19.10;72.52;93708.44;5133169;27;20184;-49
2023/04/25 04:52:01;;;;;;;5.37;3.00;;;;;;;19.45;72.20;93731.22;5133845;27;20188;-47
2023/04/25 04:54:28;;;;;;;2.87;2.60;;;;;;;19.64;71.58;93734.63;5133033;27;20245;-48
2023/04/25 04:56:55;;;;;;;5.50;2.60;;;;;;;19.79;70.82;93738.44;5133012;27;20192;-48
2023/04/25 04:59:21;;;;;;;4.10;2.50;;;;;;;19.92;70.24;93741.91;5132573;27;20604;-49
2023/04/25 05:01:48;;;;;;;5.20;2.43;;;;;;;20.04;69.93;93733.16;5133033;27;20180;-49
2023/04/25 05:04:15;;;;;;;4.37;2.27;;;;;;;20.17;69.52;93750.38;5132955;27;20181;-48
2023/04/25 05:06:44;;;;;;;7.80;2.60;;;;;;;20.30;69.25;93755.38;5133093;27;20204;-46
2023/04/25 05:09:10;;;;;;;2.53;2.33;;;;;;;20.47;68.54;93767.75;5132781;27;20194;-49
2023/04/25 05:11:37;;;;;;;4.90;2.50;;;;;;;20.54;67.96;93766.66;5131874;27;20352;-47
2023/04/25 05:14:04;;;;;;;2.50;2.30;;;;;;;20.58;67.02;93751.44;5129456;27;20715;-48
2023/04/25 05:16:31;;;;;;;5.83;3.30;;;;;;;20.73;67.17;93761.41;5131897;27;20196;-48
2023/04/25 05:18:58;;;;;;;15.33;11.13;;;;;;;20.84;70.11;93759.84;5131843;27;20197;-49
2023/04/25 05:21:25;;;;;;;15.80;9.85;;;;;;;20.92;71.71;93751.72;5132957;27;20220;-48
2023/04/25 05:23:53;;;;;;;18.27;9.10;;;;;;;20.96;71.71;93758.84;5132906;27;20200;-48
2023/04/25 05:26:20;;;;;;;12.80;7.93;;;;;;;21.00;71.09;93759.97;5131676;27;20196;-47
2023/04/25 05:28:47;;;;;;;11.88;6.38;;;;;;;20.86;69.91;93744.81;5132094;27;20188;-48
2023/04/25 05:31:14;;;;;;;10.07;6.60;;;;;;;20.86;68.51;93769.00;5130944;27;20602;-46
2023/04/25 05:33:41;;;;;;;17.27;6.47;;;;;;;20.69;67.57;93771.47;5131568;27;20227;-49
2023/04/25 05:36:09;;;;;;;7.18;5.75;;;;;;;20.54;67.25;93763.28;5129034;27;20290;-48
2023/04/25 05:38:37;;;;;;;7.47;5.90;;;;;;;19.95;67.01;93692.97;5130115;27;20215;-49
2023/04/25 05:41:05;;;;;;;5.97;5.30;;;;;;;20.25;66.59;93762.22;5128616;27;20200;-48
2023/04/25 05:43:32;;;;;;;6.87;5.47;;;;;;;20.08;66.51;93761.25;5129896;27;20204;-46
2023/04/25 05:45:59;;;;;;;11.87;5.10;;;;;;;20.07;66.15;93768.25;5128772;27;20613;-46
2023/04/25 05:48:26;;;;;;;21.37;4.73;;;;;;;19.96;65.79;93766.41;5130067;27;20277;-49
2023/04/25 05:50:54;;;;;;;7.47;5.03;;;;;;;19.98;65.73;93772.94;5131246;27;20276;-47
2023/04/25 05:53:23;;;;;;;7.63;5.23;;;;;;;19.97;65.31;93758.41;5131083;27;20224;-47
2023/04/25 05:55:50;;;;;;;6.87;4.90;;;;;;;19.95;65.01;93763.03;5131182;27;20192;-47
2023/04/25 05:58:18;;;;;;;5.63;4.57;;;;;;;19.99;64.78;93766.78;5130296;27;20188;-47
2023/04/25 06:00:46;;;;;;;6.90;4.60;;;;;;;19.99;64.50;93765.94;5128843;27;20223;-49
2023/04/25 06:03:14;;;;;;;7.23;5.13;;;;;;;20.00;64.25;93772.75;5130966;27;20233;-47
2023/04/25 06:05:41;;;;;;;6.33;4.70;;;;;;;19.99;64.15;93760.75;5130879;27;20192;-49
2023/04/25 06:08:08;;;;;;;4.70;4.30;;;;;;;20.05;63.71;93765.09;5130470;27;20637;-49
2023/04/25 06:10:35;;;;;;;7.93;4.60;;;;;;;20.12;63.11;93768.41;5130156;27;20207;-47
2023/04/25 06:13:02;;;;;;;4.60;3.87;;;;;;;20.05;62.90;93752.91;5130071;27;20220;-50
2023/04/25 06:15:32;;;;;;;5.97;4.03;;;;;;;20.17;62.87;93763.34;5130935;27;20192;-49
2023/04/25 06:17:59;;;;;;;5.53;4.63;;;;;;;20.15;62.70;93778.34;5130387;27;20199;-48
2023/04/25 06:20:26;;;;;;;4.60;4.00;;;;;;;19.96;62.44;93753.44;5130537;27;20215;-49
2023/04/25 06:22:53;;;;;;;4.80;4.10;;;;;;;20.11;62.34;93776.41;5130360;27;20260;-47
2023/04/25 06:25:20;;;;;;;5.90;4.10;;;;;;;20.15;61.99;93773.16;5130771;27;20653;-47
2023/04/25 06:27:47;;;;;;;5.73;4.10;;;;;;;20.31;61.82;93771.75;5130022;27;20665;-50
2023/04/25 06:30:18;;;;;;;9.20;3.70;;;;;;;20.49;61.29;93782.13;5131459;27;20184;-54
2023/04/25 06:32:46;;;;;;;4.43;4.00;;;;;;;20.66;61.03;93766.69;5130696;27;20192;-47
2023/04/25 06:35:13;;;;;;;4.10;3.78;;;;;;;20.95;60.54;93782.47;5130359;27;20192;-47
2023/04/25 06:37:40;;;;;;;4.93;3.78;;;;;;;21.54;60.87;93783.28;5130282;27;20192;-47
2023/04/25 06:40:08;;;;;;;4.68;3.22;;;;;;;22.22;60.80;93785.22;5130003;27;20196;-48
2023/04/25 06:42:35;;;;;;;4.25;3.25;;;;;;;22.66;59.56;93785.50;5129822;27;20207;-46
2023/04/25 06:45:02;;;;;;;4.72;3.13;;;;;;;22.86;58.84;93792.88;5130107;27;20204;-48
2023/04/25 06:47:29;;;;;;;3.78;3.28;;;;;;;22.91;58.82;93784.38;5130066;27;20208;-47
2023/04/25 06:49:57;;;;;;;5.53;3.55;;;;;;;22.87;58.62;93794.47;5130192;27;20181;-47
2023/04/25 06:52:24;;;;;;;3.60;3.13;;;;;;;22.84;58.37;93791.53;5130273;27;20546;-47
2023/04/25 06:54:51;;;;;;;5.57;4.10;;;;;;;22.79;58.41;93781.81;5129950;27;20216;-48
2023/04/25 06:57:18;;;;;;;4.65;3.00;;;;;;;22.75;57.92;93781.50;5129547;27;20192;-48
2023/04/25 06:59:45;;;;;;;3.90;3.50;;;;;;;22.77;57.78;93778.66;5129473;27;20279;-48
2023/04/25 07:02:12;;;;;;;3.83;2.70;;;;;;;22.78;57.28;93782.84;5130380;27;20180;-48
2023/04/25 07:04:39;;;;;;;3.28;3.00;;;;;;;22.71;57.16;93783.00;5129770;27;20279;-47
2023/04/25 07:07:09;;;;;;;4.10;3.20;;;;;;;22.61;57.17;93785.41;5129964;27;20188;-47
2023/04/25 07:09:36;;;;;;;4.78;3.63;;;;;;;22.52;57.13;93789.44;5129502;27;20574;-47
2023/04/25 07:12:06;;;;;;;5.50;3.05;;;;;;;22.40;56.90;93799.88;5129831;27;20318;-47
2023/04/25 07:14:32;;;;;;;4.40;3.10;;;;;;;22.31;56.63;93790.88;5128926;27;20280;-47
2023/04/25 07:16:59;;;;;;;4.80;3.13;;;;;;;22.23;56.57;93784.22;5129715;27;20184;-46
2023/04/25 07:19:29;;;;;;;3.60;3.10;;;;;;;22.12;56.60;93784.22;5129454;27;20625;-47
2023/04/25 07:21:56;;;;;;;3.42;3.13;;;;;;;21.98;56.46;93776.69;5129027;27;20278;-46
2023/04/25 07:24:25;;;;;;;2.95;2.65;;;;;;;21.99;56.29;93777.47;5129795;27;20245;-50
2023/04/25 07:26:52;;;;;;;7.38;2.92;;;;;;;21.99;56.19;93786.06;5129173;27;20283;-49
2023/04/25 07:29:18;;;;;;;3.65;2.78;;;;;;;22.02;55.92;93777.81;5130121;27;20200;-47
2023/04/25 07:31:45;;;;;;;3.00;2.70;;;;;;;22.09;55.72;93769.06;5128890;27;20666;-46
2023/04/25 07:34:12;;;;;;;4.45;3.42;;;;;;;22.19;55.41;93766.66;5129421;27;20231;-46
2023/04/25 07:36:39;;;;;;;3.47;3.17;;;;;;;22.20;55.20;93757.84;5128905;27;20569;-48
2023/04/25 07:39:06;;;;;;;3.60;3.30;;;;;;;22.28;55.10;93768.69;5129444;27;20212;-48
2023/04/25 07:41:34;;;;;;;4.68;3.28;;;;;;;22.36;55.01;93764.91;5127341;27;20200;-47
2023/04/25 07:44:01;;;;;;;3.13;2.92;;;;;;;22.43;54.67;93762.97;5129452;27;20641;-48
2023/04/25 07:46:28;;;;;;;3.78;3.17;;;;;;;22.46;54.45;93772.13;5129114;27;20199;-47
2023/04/25 07:48:55;;;;;;;3.50;3.20;;;;;;;22.47;54.34;93763.28;5129103;27;20656;-47
2023/04/25 07:51:25;;;;;;;4.07;3.22;;;;;;;22.55;54.04;93768.13;5127795;27;20279;-47
2023/04/25 07:53:52;;;;;;;3.45;2.70;;;;;;;22.63;53.94;93769.56;5128708;27;20251;-48
2023/04/25 07:56:19;;;;;;;3.78;3.10;;;;;;;22.67;53.64;93755.84;5128882;27;20565;-46
2023/04/25 07:58:48;;;;;;;3.30;3.00;;;;;;;22.70;53.54;93755.34;5127210;28;20196;-47
2023/04/25 08:01:17;;;;;;;5.68;3.15;;;;;;;22.73;53.60;93756.69;5129200;28;20196;-47
2023/04/25 08:03:44;;;;;;;3.85;2.85;;;;;;;22.70;53.33;93739.69;5129357;27;20273;-48
2023/04/25 08:06:11;;;;;;;4.80;3.05;;;;;;;22.94;53.13;93753.41;5127754;28;20677;-47
2023/04/25 08:08:39;;;;;;;6.03;3.08;;;;;;;23.23;52.78;93742.91;5127748;28;20861;-48
2023/04/25 08:11:07;;;;;;;5.32;3.22;;;;;;;23.53;52.46;93745.94;5129963;27;20196;-48
2023/04/25 08:13:35;;;;;;;2.67;2.47;;;;;;;23.80;52.15;93750.47;5132813;27;20748;-48
2023/04/25 08:16:03;;;;;;;3.45;3.15;;;;;;;23.95;51.88;93755.88;5134189;27;20208;-47
2023/04/25 08:18:31;;;;;;;4.68;3.30;;;;;;;24.00;52.05;93748.09;5133238;27;20226;-47
2023/04/25 08:20:58;;;;;;;4.30;2.97;;;;;;;24.10;51.76;93747.44;5133483;27;20269;-47
2023/04/25 08:23:25;;;;;;;6.53;2.55;;;;;;;24.56;51.25;93731.44;5133363;27;20184;-48
2023/04/25 08:25:52;;;;;;;3.22;2.80;;;;;;;24.96;50.78;93731.81;5133327;27;20205;-46
2023/04/25 08:28:18;;;;;;;3.50;2.75;;;;;;;25.17;50.52;93734.59;5132856;27;20192;-46
2023/04/25 08:30:45;;;;;;;4.90;2.90;;;;;;;25.15;50.66;93737.47;5133281;27;20189;-47
2023/04/25 08:33:14;;;;;;;2.78;2.58;;;;;;;25.04;50.77;93751.47;5133352;27;20214;-47
2023/04/25 08:35:41;;;;;;;3.92;3.53;;;;;;;24.87;50.87;93749.00;5132947;27;20215;-48
2023/04/25 08:38:08;;;;;;;3.35;2.75;;;;;;;24.76;51.24;93750.72;5131050;27;20192;-47
2023/04/25 08:40:41;;;;;;;3.65;2.70;;;;;;;24.73;50.87;93747.81;5132742;27;20233;-48
2023/04/25 08:43:11;;;;;;;3.42;2.63;;;;;;;24.73;50.83;93747.81;5132797;27;20199;-48
2023/04/25 08:45:40;;;;;;;3.20;2.70;;;;;;;24.81;50.53;93746.56;5130990;27;20196;-49
2023/04/25 08:48:08;;;;;;;2.83;2.63;;;;;;;25.07;49.86;93743.13;5132793;27;20307;-48
2023/04/25 08:50:37;;;;;;;2.60;2.40;;;;;;;25.47;49.46;93745.25;5132395;27;20199;-48
2023/04/25 08:53:09;;;;;;;2.22;2.10;;;;;;;25.86;48.90;93739.69;5132603;27;20195;-47
2023/04/25 08:55:38;;;;;;;3.22;2.50;;;;;;;26.23;48.74;93731.72;5132528;27;20236;-48
2023/04/25 08:58:06;;;;;;;3.72;2.42;;;;;;;26.45;48.23;93741.25;5132925;27;20199;-48
2023/04/25 09:00:33;;;;;;;4.28;2.80;;;;;;;26.50;47.94;93734.16;5132686;27;20264;-49
2023/04/25 09:03:00;;;;;;;3.33;2.10;;;;;;;26.46;48.19;93708.72;5132672;27;20199;-48
2023/04/25 09:05:28;;;;;;;3.67;2.58;;;;;;;26.63;48.30;93726.84;5132032;27;20679;-47
2023/04/25 09:08:00;;;;;;;2.90;2.40;;;;;;;26.61;48.01;93723.69;5132744;27;20192;-49
2023/04/25 09:10:27;;;;;;;3.05;2.75;;;;;;;26.61;47.81;93729.72;5129679;27;20252;-48
2023/04/25 09:13:05;;;;;;;3.10;2.30;;;;;;;26.65;47.83;93722.13;5132747;27;20204;-47
2023/04/25 09:15:33;;;;;;;4.65;2.50;;;;;;;26.69;47.31;93725.81;5132065;27;20212;-48
2023/04/25 09:18:01;;;;;;;2.88;2.45;;;;;;;26.77;47.45;93715.59;5132342;27;20184;-47
2023/04/25 09:20:30;;;;;;;4.32;2.50;;;;;;;26.82;47.12;93714.78;5131128;27;20192;-48
2023/04/25 09:23:07;;;;;;;2.30;2.10;;;;;;;26.86;47.02;93718.47;5132234;27;20522;-50
2023/04/25 09:25:39;;;;;;;2.35;2.13;;;;;;;26.84;46.71;93719.78;5132063;27;20192;-50
2023/04/25 09:28:07;;;;;;;3.42;2.30;;;;;;;26.84;46.69;93719.78;5132345;27;20684;-49
2023/04/25 09:30:36;;;;;;;3.28;2.38;;;;;;;26.77;46.39;93707.72;5132277;27;20188;-49
2023/04/25 09:33:08;;;;;;;3.15;2.42;;;;;;;26.67;46.41;93720.81;5132212;27;20192;-48
2023/04/25 09:35:42;;;;;;;5.03;2.38;;;;;;;26.64;46.16;93716.09;5131513;27;20207;-48
2023/04/25 09:38:14;;;;;;;2.47;2.28;;;;;;;26.70;45.98;93711.63;5130532;27;20208;-48
2023/04/25 09:40:42;;;;;;;2.53;2.33;;;;;;;26.74;45.72;93710.84;5129831;27;20203;-47
2023/04/25 09:43:25;;;;;;;2.40;2.20;;;;;;;26.92;45.29;93714.00;5131208;27;20201;-47
2023/04/25 09:45:57;;;;;;;2.35;1.95;;;;;;;26.96;45.32;93707.19;5130874;27;20612;-48
2023/04/25 09:48:25;;;;;;;2.47;2.28;;;;;;;26.87;44.92;93693.03;5129463;27;20184;-50
2023/04/25 09:51:06;;;;;;;2.08;1.90;;;;;;;26.96;44.81;93707.19;5131167;27;20704;-46
2023/04/25 09:53:36;;;;;;;2.90;1.90;;;;;;;26.91;44.59;93702.72;5131219;27;20196;-47
2023/04/25 09:56:06;;;;;;;2.00;1.80;;;;;;;26.90;44.61;93702.97;5128907;27;20208;-49
2023/04/25 09:58:33;;;;;;;2.75;1.77;;;;;;;26.84;44.13;93698.78;5131540;27;20299;-48
2023/04/25 10:01:01;;;;;;;2.03;1.90;;;;;;;26.76;43.96;93700.09;5131319;27;20270;-47
2023/04/25 10:03:31;;;;;;;2.10;2.00;;;;;;;26.56;43.97;93697.47;5131049;27;20192;-48
2023/04/25 10:06:00;;;;;;;2.38;2.00;;;;;;;26.41;44.32;93716.56;5130712;27;20199;-47
2023/04/25 10:08:32;;;;;;;2.00;1.90;;;;;;;26.24;44.39;93732.50;5131041;27;20241;-50
2023/04/25 10:11:02;;;;;;;2.85;2.38;;;;;;;26.09;44.63;93725.41;5130597;27;20227;-48
2023/04/25 10:13:30;;;;;;;3.50;2.03;;;;;;;25.89;44.58;93748.91;5130824;27;20197;-49
2023/04/25 10:15:58;;;;;;;2.40;2.20;;;;;;;25.61;44.78;93736.97;5130159;27;20212;-49
2023/04/25 10:18:27;;;;;;;1.80;1.70;;;;;;;25.33;44.79;93722.38;5130614;27;20193;-49
2023/04/25 10:20:55;;;;;;;3.65;2.00;;;;;;;25.22;45.04;93724.16;5130510;27;20212;-50
2023/04/25 10:23:22;;;;;;;3.63;2.00;;;;;;;25.26;44.80;93718.19;5131118;27;20232;-48
2023/04/25 10:25:50;;;;;;;1.75;1.65;;;;;;;25.52;44.83;93718.31;5130351;27;20192;-50
2023/04/25 10:28:19;;;;;;;1.90;1.80;;;;;;;25.85;44.27;93706.69;5128262;27;20230;-47
2023/04/25 10:31:00;;;;;;;2.10;1.50;;;;;;;26.16;43.64;93704.16;5129576;27;20218;-48
2023/04/25 10:33:37;;;;;;;1.60;1.50;;;;;;;26.42;43.57;93682.19;5130512;27;20192;-49
2023/04/25 10:36:11;;;;;;;1.60;1.50;;;;;;;26.61;43.56;93695.63;5130628;27;20219;-48
2023/04/25 10:38:39;;;;;;;3.42;1.90;;;;;;;26.75;43.15;93698.53;5130511;27;20202;-47
2023/04/25 10:41:08;;;;;;;4.82;2.10;;;;;;;26.82;43.09;93698.28;5130489;27;20669;-49
2023/04/25 10:43:38;;;;;;;2.00;1.50;;;;;;;26.76;42.30;93661.53;5129766;27;20529;-50
2023/04/25 10:46:14;;;;;;;1.95;1.67;;;;;;;27.27;41.95;93689.56;5130337;27;20245;-49
2023/04/25 10:48:48;;;;;;;3.42;1.42;;;;;;;27.26;41.73;93693.25;5128859;27;20192;-49
2023/04/25 10:51:18;;;;;;;1.55;1.45;;;;;;;27.21;41.89;93691.44;5130067;27;20681;-47
2023/04/25 10:53:46;;;;;;;2.45;1.45;;;;;;;27.08;41.76;93691.16;5130287;27;20223;-48
2023/04/25 10:56:17;;;;;;;1.60;1.50;;;;;;;26.93;42.11;93686.69;5129733;27;20708;-47
2023/04/25 10:58:46;;;;;;;1.30;1.30;;;;;;;26.82;42.25;93675.44;5130376;27;20192;-46
2023/04/25 11:01:14;;;;;;;1.67;1.58;;;;;;;26.87;41.82;93685.94;5130160;27;20184;-46
2023/04/25 11:03:45;;;;;;;3.70;1.38;;;;;;;26.85;41.67;93687.22;5128228;27;20274;-47
2023/04/25 11:06:31;;;;;;;1.40;1.30;;;;;;;26.68;42.06;93692.72;5129740;27;20679;-49
2023/04/25 11:09:00;;;;;;;1.50;1.40;;;;;;;26.46;42.03;93685.91;5129187;27;20212;-48
2023/04/25 11:11:27;;;;;;;1.50;1.40;;;;;;;26.28;42.37;93687.16;5130057;27;20188;-48
2023/04/25 11:13:56;;;;;;;1.52;1.40;;;;;;;26.10;42.54;93676.38;5129428;27;20219;-52
2023/04/25 11:16:25;;;;;;;1.35;1.25;;;;;;;25.90;42.60;93680.50;5129748;27;20230;-48
2023/04/25 11:18:52;;;;;;;1.40;1.30;;;;;;;25.79;42.78;93680.75;5129274;27;20253;-48
2023/04/25 11:21:18;;;;;;;1.20;1.20;;;;;;;25.69;43.11;93686.69;5129657;27;20216;-50
2023/04/25 11:23:46;;;;;;;1.70;1.60;;;;;;;25.58;43.22;93685.09;5130413;27;20552;-48
2023/04/25 11:26:14;;;;;;;1.50;1.40;;;;;;;25.44;43.27;93684.78;5129183;27;20196;-48
2023/04/25 11:28:40;;;;;;;1.50;1.40;;;;;;;25.26;43.19;93686.78;5130308;27;20192;-47
2023/04/25 11:31:10;;;;;;;1.85;1.20;;;;;;;25.10;43.18;93695.56;5130689;27;20203;-48
2023/04/25 11:33:37;;;;;;;1.60;1.50;;;;;;;24.91;43.52;93695.13;5130719;27;20180;-48
2023/04/25 11:36:05;;;;;;;1.50;1.40;;;;;;;24.71;43.63;93701.00;5129975;27;20227;-49
2023/04/25 11:38:32;;;;;;;2.25;1.67;;;;;;;24.50;44.16;93701.88;5130062;27;20195;-47